SAZB/BHI METAR and TAF weather

Enter ICAO airport designator
Station Type Date Time Source
SAZB METAR 2019/12/07 22:47 UTC NOAA

SAZB 072247Z 32017KT 9999 BKN035 27/07 Q1005


Station Type Date Time Source
SAZB Decoded METAR 2019/12/07 22:47 UTC NOAA

Bahia Blanca Aerodrome, Argentina (SAZB) 38-44S 062-10W 83M
Dec 07, 2019 - 05:47 PM EST / 2019.12.07 2247 UTC
Wind: from the NW (320 degrees) at 20 MPH (17 KT):0
Visibility: greater than 7 mile(s):0
Sky conditions: mostly cloudy
Temperature: 80 F (27 C)
Dew Point: 44 F (7 C)
Relative Humidity: 28%
Pressure (altimeter): 29.68 in. Hg (1005 hPa)
ob: SAZB 072247Z 32017KT 9999 BKN035 27/07 Q1005
cycle: 23

Station Type Date Time Source
SAZB TAF 2019/10/17 12:21 UTC NOAA

TAF SAZB 171100Z 1712/1812 11010KT 6000 -RA BKN007 OVC030 TX16/1718Z TN08/1809Z
BECMG 1715/1717 18010KT 9999 NSW BKN020
BECMG 1721/1723 25005KT 9999 SCT035
BECMG 1803/1805 3000 BR SCT010

Example: see airport list